sensor_id;sensor_type;location;lat;lon;timestamp;P1;durP1;ratioP1;P2;durP2;ratioP2
46334;SDS011;32051;48.882;9.210;2022-08-18T00:04:38;4.15;;;3.78;;
46334;SDS011;32051;48.882;9.210;2022-08-18T00:07:05;6.18;;;4.47;;
46334;SDS011;32051;48.882;9.210;2022-08-18T00:09:32;5.45;;;4.63;;
46334;SDS011;32051;48.882;9.210;2022-08-18T00:12:00;9.40;;;4.82;;
46334;SDS011;32051;48.882;9.210;2022-08-18T00:14:27;5.18;;;4.88;;
46334;SDS011;32051;48.882;9.210;2022-08-18T00:16:53;5.55;;;5.03;;
46334;SDS011;32051;48.882;9.210;2022-08-18T00:19:20;6.10;;;5.47;;
46334;SDS011;32051;48.882;9.210;2022-08-18T00:21:46;6.90;;;5.90;;
46334;SDS011;32051;48.882;9.210;2022-08-18T00:24:12;8.32;;;5.57;;
46334;SDS011;32051;48.882;9.210;2022-08-18T00:26:38;7.07;;;5.20;;
46334;SDS011;32051;48.882;9.210;2022-08-18T00:29:05;6.45;;;5.90;;
46334;SDS011;32051;48.882;9.210;2022-08-18T00:31:31;6.45;;;5.85;;
46334;SDS011;32051;48.882;9.210;2022-08-18T00:33:57;6.55;;;5.50;;
46334;SDS011;32051;48.882;9.210;2022-08-18T00:36:24;6.47;;;5.88;;
46334;SDS011;32051;48.882;9.210;2022-08-18T00:38:51;6.03;;;5.53;;
46334;SDS011;32051;48.882;9.210;2022-08-18T00:41:17;6.47;;;5.90;;
46334;SDS011;32051;48.882;9.210;2022-08-18T00:43:48;7.43;;;6.85;;
46334;SDS011;32051;48.882;9.210;2022-08-18T00:46:20;6.07;;;5.57;;
46334;SDS011;32051;48.882;9.210;2022-08-18T00:48:46;6.68;;;6.13;;
46334;SDS011;32051;48.882;9.210;2022-08-18T00:51:18;8.50;;;6.60;;
46334;SDS011;32051;48.882;9.210;2022-08-18T00:53:47;8.98;;;6.85;;
46334;SDS011;32051;48.882;9.210;2022-08-18T00:56:26;7.18;;;6.35;;
46334;SDS011;32051;48.882;9.210;2022-08-18T01:01:51;6.38;;;5.97;;
46334;SDS011;32051;48.882;9.210;2022-08-18T01:04:22;5.45;;;4.95;;
46334;SDS011;32051;48.882;9.210;2022-08-18T01:06:51;9.13;;;6.57;;
46334;SDS011;32051;48.882;9.210;2022-08-18T01:09:18;8.10;;;6.22;;
46334;SDS011;32051;48.882;9.210;2022-08-18T01:11:44;8.20;;;7.60;;
46334;SDS011;32051;48.882;9.210;2022-08-18T01:14:11;7.80;;;7.05;;
46334;SDS011;32051;48.882;9.210;2022-08-18T01:16:40;6.88;;;6.18;;
46334;SDS011;32051;48.882;9.210;2022-08-18T01:19:25;7.53;;;6.93;;
46334;SDS011;32051;48.882;9.210;2022-08-18T01:22:17;7.00;;;6.40;;
46334;SDS011;32051;48.882;9.210;2022-08-18T01:24:44;8.10;;;7.25;;
46334;SDS011;32051;48.882;9.210;2022-08-18T01:27:28;6.68;;;6.18;;
46334;SDS011;32051;48.882;9.210;2022-08-18T01:29:56;8.02;;;6.88;;
46334;SDS011;32051;48.882;9.210;2022-08-18T01:32:23;8.27;;;7.68;;
46334;SDS011;32051;48.882;9.210;2022-08-18T01:34:50;7.03;;;6.22;;
46334;SDS011;32051;48.882;9.210;2022-08-18T01:37:16;6.65;;;6.15;;
46334;SDS011;32051;48.882;9.210;2022-08-18T01:39:43;11.45;;;6.88;;
46334;SDS011;32051;48.882;9.210;2022-08-18T01:42:09;8.50;;;7.03;;
46334;SDS011;32051;48.882;9.210;2022-08-18T01:44:36;8.63;;;7.32;;
46334;SDS011;32051;48.882;9.210;2022-08-18T01:47:04;7.30;;;6.80;;
46334;SDS011;32051;48.882;9.210;2022-08-18T01:49:30;7.20;;;6.50;;
46334;SDS011;32051;48.882;9.210;2022-08-18T01:51:56;7.45;;;6.85;;
46334;SDS011;32051;48.882;9.210;2022-08-18T01:54:22;7.32;;;6.93;;
46334;SDS011;32051;48.882;9.210;2022-08-18T01:56:53;8.30;;;7.60;;
46334;SDS011;32051;48.882;9.210;2022-08-18T01:59:20;8.55;;;6.63;;
46334;SDS011;32051;48.882;9.210;2022-08-18T02:01:46;7.05;;;6.47;;
46334;SDS011;32051;48.882;9.210;2022-08-18T02:04:13;7.53;;;6.75;;
46334;SDS011;32051;48.882;9.210;2022-08-18T02:06:40;8.05;;;6.13;;
46334;SDS011;32051;48.882;9.210;2022-08-18T02:09:06;7.03;;;6.55;;
46334;SDS011;32051;48.882;9.210;2022-08-18T02:11:32;6.72;;;6.13;;
46334;SDS011;32051;48.882;9.210;2022-08-18T02:13:58;7.93;;;6.68;;
46334;SDS011;32051;48.882;9.210;2022-08-18T02:16:24;6.43;;;5.93;;
46334;SDS011;32051;48.882;9.210;2022-08-18T02:18:50;6.45;;;6.03;;
46334;SDS011;32051;48.882;9.210;2022-08-18T02:21:18;6.50;;;5.90;;
46334;SDS011;32051;48.882;9.210;2022-08-18T02:23:46;10.98;;;6.05;;
46334;SDS011;32051;48.882;9.210;2022-08-18T02:26:13;6.70;;;6.20;;
46334;SDS011;32051;48.882;9.210;2022-08-18T02:28:40;6.22;;;5.72;;
46334;SDS011;32051;48.882;9.210;2022-08-18T02:31:08;7.28;;;6.68;;
46334;SDS011;32051;48.882;9.210;2022-08-18T02:33:35;6.65;;;6.10;;
46334;SDS011;32051;48.882;9.210;2022-08-18T02:36:01;6.07;;;5.57;;
46334;SDS011;32051;48.882;9.210;2022-08-18T02:38:28;6.80;;;6.38;;
46334;SDS011;32051;48.882;9.210;2022-08-18T02:40:55;6.68;;;6.15;;
46334;SDS011;32051;48.882;9.210;2022-08-18T02:43:21;5.78;;;5.25;;
46334;SDS011;32051;48.882;9.210;2022-08-18T02:45:48;6.25;;;5.75;;
46334;SDS011;32051;48.882;9.210;2022-08-18T02:48:14;7.82;;;6.68;;
46334;SDS011;32051;48.882;9.210;2022-08-18T02:50:41;7.60;;;6.53;;
46334;SDS011;32051;48.882;9.210;2022-08-18T02:53:13;6.78;;;6.32;;
46334;SDS011;32051;48.882;9.210;2022-08-18T02:55:49;6.63;;;6.10;;
46334;SDS011;32051;48.882;9.210;2022-08-18T02:58:15;7.20;;;6.20;;
46334;SDS011;32051;48.882;9.210;2022-08-18T03:00:44;7.20;;;6.70;;
46334;SDS011;32051;48.882;9.210;2022-08-18T03:03:10;7.95;;;7.40;;
46334;SDS011;32051;48.882;9.210;2022-08-18T03:05:37;8.02;;;7.13;;
46334;SDS011;32051;48.882;9.210;2022-08-18T03:08:03;7.95;;;6.93;;
46334;SDS011;32051;48.882;9.210;2022-08-18T03:10:30;7.28;;;6.57;;
46334;SDS011;32051;48.882;9.210;2022-08-18T03:12:56;8.15;;;7.45;;
46334;SDS011;32051;48.882;9.210;2022-08-18T03:15:22;7.32;;;6.72;;
46334;SDS011;32051;48.882;9.210;2022-08-18T03:17:48;7.22;;;6.57;;
46334;SDS011;32051;48.882;9.210;2022-08-18T03:20:15;5.13;;;4.82;;
46334;SDS011;32051;48.882;9.210;2022-08-18T03:22:41;6.95;;;5.28;;
46334;SDS011;32051;48.882;9.210;2022-08-18T03:25:08;4.97;;;4.68;;
46334;SDS011;32051;48.882;9.210;2022-08-18T03:27:34;4.75;;;4.45;;
46334;SDS011;32051;48.882;9.210;2022-08-18T03:30:00;5.10;;;4.18;;
46334;SDS011;32051;48.882;9.210;2022-08-18T03:32:28;8.40;;;5.55;;
46334;SDS011;32051;48.882;9.210;2022-08-18T03:34:54;5.00;;;4.60;;
46334;SDS011;32051;48.882;9.210;2022-08-18T03:37:20;5.30;;;5.00;;
46334;SDS011;32051;48.882;9.210;2022-08-18T03:39:46;4.78;;;4.35;;
46334;SDS011;32051;48.882;9.210;2022-08-18T03:42:15;3.95;;;3.58;;
46334;SDS011;32051;48.882;9.210;2022-08-18T03:44:42;4.25;;;4.00;;
46334;SDS011;32051;48.882;9.210;2022-08-18T03:47:09;4.65;;;4.28;;
46334;SDS011;32051;48.882;9.210;2022-08-18T03:49:36;8.25;;;4.65;;
46334;SDS011;32051;48.882;9.210;2022-08-18T03:52:02;4.80;;;4.50;;
46334;SDS011;32051;48.882;9.210;2022-08-18T03:54:30;7.95;;;4.43;;
46334;SDS011;32051;48.882;9.210;2022-08-18T03:56:56;4.70;;;4.30;;
46334;SDS011;32051;48.882;9.210;2022-08-18T03:59:23;5.00;;;4.65;;
46334;SDS011;32051;48.882;9.210;2022-08-18T04:01:51;4.97;;;4.63;;
46334;SDS011;32051;48.882;9.210;2022-08-18T04:04:19;5.43;;;5.03;;
46334;SDS011;32051;48.882;9.210;2022-08-18T04:06:47;5.18;;;4.82;;
46334;SDS011;32051;48.882;9.210;2022-08-18T04:09:21;5.32;;;4.82;;
46334;SDS011;32051;48.882;9.210;2022-08-18T04:11:48;4.85;;;4.47;;
46334;SDS011;32051;48.882;9.210;2022-08-18T04:14:19;5.15;;;4.65;;
46334;SDS011;32051;48.882;9.210;2022-08-18T04:16:45;5.20;;;4.80;;
46334;SDS011;32051;48.882;9.210;2022-08-18T04:19:13;4.80;;;4.50;;
46334;SDS011;32051;48.882;9.210;2022-08-18T04:21:41;7.55;;;4.53;;
46334;SDS011;32051;48.882;9.210;2022-08-18T04:24:07;5.85;;;4.72;;
46334;SDS011;32051;48.882;9.210;2022-08-18T04:26:37;5.38;;;5.07;;
46334;SDS011;32051;48.882;9.210;2022-08-18T04:29:04;4.80;;;4.50;;
46334;SDS011;32051;48.882;9.210;2022-08-18T04:31:30;5.22;;;4.90;;
46334;SDS011;32051;48.882;9.210;2022-08-18T04:33:57;5.45;;;5.05;;
46334;SDS011;32051;48.882;9.210;2022-08-18T04:36:24;5.28;;;4.88;;
46334;SDS011;32051;48.882;9.210;2022-08-18T04:38:50;5.60;;;5.10;;
46334;SDS011;32051;48.882;9.210;2022-08-18T04:41:17;7.53;;;5.13;;
46334;SDS011;32051;48.882;9.210;2022-08-18T04:43:43;6.32;;;5.72;;
46334;SDS011;32051;48.882;9.210;2022-08-18T04:46:09;6.07;;;5.50;;
46334;SDS011;32051;48.882;9.210;2022-08-18T04:48:37;7.70;;;4.93;;
46334;SDS011;32051;48.882;9.210;2022-08-18T04:51:04;6.22;;;5.70;;
46334;SDS011;32051;48.882;9.210;2022-08-18T04:53:31;6.15;;;5.55;;
46334;SDS011;32051;48.882;9.210;2022-08-18T04:56:28;5.97;;;5.68;;
46334;SDS011;32051;48.882;9.210;2022-08-18T04:59:00;5.75;;;5.25;;
46334;SDS011;32051;48.882;9.210;2022-08-18T05:01:28;5.72;;;5.28;;
46334;SDS011;32051;48.882;9.210;2022-08-18T05:03:55;8.95;;;5.53;;
46334;SDS011;32051;48.882;9.210;2022-08-18T05:06:22;6.70;;;6.22;;
46334;SDS011;32051;48.882;9.210;2022-08-18T05:08:50;6.97;;;5.88;;
46334;SDS011;32051;48.882;9.210;2022-08-18T05:11:18;5.32;;;5.00;;
46334;SDS011;32051;48.882;9.210;2022-08-18T05:13:45;5.88;;;5.47;;
46334;SDS011;32051;48.882;9.210;2022-08-18T05:16:12;5.70;;;5.22;;
46334;SDS011;32051;48.882;9.210;2022-08-18T05:18:38;6.40;;;6.00;;
46334;SDS011;32051;48.882;9.210;2022-08-18T05:21:07;6.35;;;5.85;;
46334;SDS011;32051;48.882;9.210;2022-08-18T05:23:43;5.68;;;5.38;;
46334;SDS011;32051;48.882;9.210;2022-08-18T05:26:10;4.97;;;4.57;;
46334;SDS011;32051;48.882;9.210;2022-08-18T05:28:39;5.25;;;4.95;;
46334;SDS011;32051;48.882;9.210;2022-08-18T05:31:10;5.03;;;4.63;;
46334;SDS011;32051;48.882;9.210;2022-08-18T05:33:36;8.60;;;5.45;;
46334;SDS011;32051;48.882;9.210;2022-08-18T05:36:04;4.60;;;4.30;;
46334;SDS011;32051;48.882;9.210;2022-08-18T05:41:02;5.40;;;5.00;;
46334;SDS011;32051;48.882;9.210;2022-08-18T05:43:30;7.22;;;5.47;;
46334;SDS011;32051;48.882;9.210;2022-08-18T05:45:56;6.80;;;5.03;;
46334;SDS011;32051;48.882;9.210;2022-08-18T05:48:23;6.03;;;5.22;;
46334;SDS011;32051;48.882;9.210;2022-08-18T05:50:49;6.95;;;4.57;;
46334;SDS011;32051;48.882;9.210;2022-08-18T05:53:15;9.18;;;4.82;;
46334;SDS011;32051;48.882;9.210;2022-08-18T05:56:05;6.63;;;5.20;;
46334;SDS011;32051;48.882;9.210;2022-08-18T05:58:52;9.77;;;4.53;;
46334;SDS011;32051;48.882;9.210;2022-08-18T06:01:23;5.28;;;4.78;;
46334;SDS011;32051;48.882;9.210;2022-08-18T06:03:52;5.78;;;4.55;;
46334;SDS011;32051;48.882;9.210;2022-08-18T06:06:20;9.95;;;4.57;;
46334;SDS011;32051;48.882;9.210;2022-08-18T06:11:40;10.82;;;4.72;;
46334;SDS011;32051;48.882;9.210;2022-08-18T06:14:07;5.57;;;5.07;;
46334;SDS011;32051;48.882;9.210;2022-08-18T06:26:43;5.43;;;5.03;;
46334;SDS011;32051;48.882;9.210;2022-08-18T06:29:18;6.60;;;5.72;;
46334;SDS011;32051;48.882;9.210;2022-08-18T06:31:58;4.82;;;4.47;;
46334;SDS011;32051;48.882;9.210;2022-08-18T06:37:19;5.57;;;5.10;;
46334;SDS011;32051;48.882;9.210;2022-08-18T06:39:50;5.57;;;5.07;;
46334;SDS011;32051;48.882;9.210;2022-08-18T06:42:17;5.78;;;5.22;;
46334;SDS011;32051;48.882;9.210;2022-08-18T06:44:52;8.38;;;4.65;;
46334;SDS011;32051;48.882;9.210;2022-08-18T06:50:06;5.97;;;5.45;;
46334;SDS011;32051;48.882;9.210;2022-08-18T06:52:34;5.45;;;4.95;;
46334;SDS011;32051;48.882;9.210;2022-08-18T06:55:11;5.30;;;5.00;;
46334;SDS011;32051;48.882;9.210;2022-08-18T06:57:51;6.32;;;4.82;;
46334;SDS011;32051;48.882;9.210;2022-08-18T07:02:51;5.13;;;4.72;;
46334;SDS011;32051;48.882;9.210;2022-08-18T07:05:23;8.73;;;5.22;;
46334;SDS011;32051;48.882;9.210;2022-08-18T07:10:39;5.60;;;4.72;;
46334;SDS011;32051;48.882;9.210;2022-08-18T07:13:27;8.02;;;4.50;;
46334;SDS011;32051;48.882;9.210;2022-08-18T07:15:53;5.80;;;5.40;;
46334;SDS011;32051;48.882;9.210;2022-08-18T07:18:26;6.20;;;5.80;;
46334;SDS011;32051;48.882;9.210;2022-08-18T07:20:55;5.47;;;5.07;;
46334;SDS011;32051;48.882;9.210;2022-08-18T07:23:30;6.68;;;4.75;;
46334;SDS011;32051;48.882;9.210;2022-08-18T07:26:05;5.65;;;5.15;;
46334;SDS011;32051;48.882;9.210;2022-08-18T07:28:37;4.60;;;4.30;;
46334;SDS011;32051;48.882;9.210;2022-08-18T07:31:21;3.50;;;3.28;;
46334;SDS011;32051;48.882;9.210;2022-08-18T07:33:50;3.88;;;3.47;;
46334;SDS011;32051;48.882;9.210;2022-08-18T07:36:19;3.72;;;3.42;;
46334;SDS011;32051;48.882;9.210;2022-08-18T07:38:50;4.05;;;3.80;;
46334;SDS011;32051;48.882;9.210;2022-08-18T07:41:26;3.55;;;3.25;;
46334;SDS011;32051;48.882;9.210;2022-08-18T07:44:15;4.55;;;3.70;;
46334;SDS011;32051;48.882;9.210;2022-08-18T07:49:23;4.00;;;3.55;;
46334;SDS011;32051;48.882;9.210;2022-08-18T07:52:01;4.03;;;3.80;;
46334;SDS011;32051;48.882;9.210;2022-08-18T07:54:37;8.15;;;4.20;;
46334;SDS011;32051;48.882;9.210;2022-08-18T08:05:08;3.90;;;3.63;;
46334;SDS011;32051;48.882;9.210;2022-08-18T08:10:48;6.20;;;3.97;;
46334;SDS011;32051;48.882;9.210;2022-08-18T08:13:26;4.32;;;3.88;;
46334;SDS011;32051;48.882;9.210;2022-08-18T08:21:10;4.90;;;4.30;;
46334;SDS011;32051;48.882;9.210;2022-08-18T08:23:53;5.05;;;4.15;;
46334;SDS011;32051;48.882;9.210;2022-08-18T08:26:32;4.30;;;4.05;;
46334;SDS011;32051;48.882;9.210;2022-08-18T08:29:12;11.02;;;6.13;;
46334;SDS011;32051;48.882;9.210;2022-08-18T08:36:36;8.48;;;4.28;;
46334;SDS011;32051;48.882;9.210;2022-08-18T08:39:11;6.63;;;4.53;;
46334;SDS011;32051;48.882;9.210;2022-08-18T08:41:40;7.50;;;4.60;;
46334;SDS011;32051;48.882;9.210;2022-08-18T08:46:51;6.53;;;4.82;;
46334;SDS011;32051;48.882;9.210;2022-08-18T08:49:24;11.10;;;4.40;;
46334;SDS011;32051;48.882;9.210;2022-08-18T08:51:54;6.47;;;4.60;;
46334;SDS011;32051;48.882;9.210;2022-08-18T08:54:27;5.18;;;4.15;;
46334;SDS011;32051;48.882;9.210;2022-08-18T08:59:21;4.88;;;4.43;;
46334;SDS011;32051;48.882;9.210;2022-08-18T09:06:55;4.82;;;4.43;;
46334;SDS011;32051;48.882;9.210;2022-08-18T09:20:16;6.20;;;4.32;;
46334;SDS011;32051;48.882;9.210;2022-08-18T09:25:11;5.35;;;5.05;;
46334;SDS011;32051;48.882;9.210;2022-08-18T09:28:05;5.90;;;4.13;;
46334;SDS011;32051;48.882;9.210;2022-08-18T09:38:30;4.65;;;4.22;;
46334;SDS011;32051;48.882;9.210;2022-08-18T09:41:17;4.57;;;4.28;;
46334;SDS011;32051;48.882;9.210;2022-08-18T09:51:50;4.60;;;4.25;;
46334;SDS011;32051;48.882;9.210;2022-08-18T09:54:18;4.47;;;4.20;;
46334;SDS011;32051;48.882;9.210;2022-08-18T10:02:04;4.95;;;4.63;;
46334;SDS011;32051;48.882;9.210;2022-08-18T10:04:33;5.57;;;5.07;;
46334;SDS011;32051;48.882;9.210;2022-08-18T10:07:12;4.43;;;3.97;;
46334;SDS011;32051;48.882;9.210;2022-08-18T10:09:44;4.65;;;4.25;;
46334;SDS011;32051;48.882;9.210;2022-08-18T10:12:24;7.70;;;3.60;;
46334;SDS011;32051;48.882;9.210;2022-08-18T10:19:57;10.85;;;5.20;;
46334;SDS011;32051;48.882;9.210;2022-08-18T10:22:45;8.55;;;5.05;;
46334;SDS011;32051;48.882;9.210;2022-08-18T10:25:12;11.55;;;4.90;;
46334;SDS011;32051;48.882;9.210;2022-08-18T10:32:55;9.18;;;4.13;;
46334;SDS011;32051;48.882;9.210;2022-08-18T10:38:21;4.78;;;4.38;;
46334;SDS011;32051;48.882;9.210;2022-08-18T10:40:55;5.80;;;4.88;;
46334;SDS011;32051;48.882;9.210;2022-08-18T10:43:38;5.57;;;5.07;;
46334;SDS011;32051;48.882;9.210;2022-08-18T10:46:13;5.43;;;5.03;;
46334;SDS011;32051;48.882;9.210;2022-08-18T10:48:39;5.10;;;4.70;;
46334;SDS011;32051;48.882;9.210;2022-08-18T10:59:25;6.25;;;5.35;;
46334;SDS011;32051;48.882;9.210;2022-08-18T11:04:48;9.50;;;5.28;;
46334;SDS011;32051;48.882;9.210;2022-08-18T11:07:19;6.00;;;4.88;;
46334;SDS011;32051;48.882;9.210;2022-08-18T11:09:48;4.55;;;4.25;;
46334;SDS011;32051;48.882;9.210;2022-08-18T11:12:15;4.72;;;4.43;;
46334;SDS011;32051;48.882;9.210;2022-08-18T11:15:09;5.03;;;4.63;;
46334;SDS011;32051;48.882;9.210;2022-08-18T11:17:40;4.95;;;4.47;;
46334;SDS011;32051;48.882;9.210;2022-08-18T11:20:09;4.73;;;4.43;;
46334;SDS011;32051;48.882;9.210;2022-08-18T11:22:36;6.30;;;4.50;;
46334;SDS011;32051;48.882;9.210;2022-08-18T11:25:04;5.65;;;5.15;;
46334;SDS011;32051;48.882;9.210;2022-08-18T11:27:44;8.77;;;4.93;;
46334;SDS011;32051;48.882;9.210;2022-08-18T11:30:10;5.32;;;4.93;;
46334;SDS011;32051;48.882;9.210;2022-08-18T11:32:38;16.60;;;5.43;;
46334;SDS011;32051;48.882;9.210;2022-08-18T11:35:06;4.80;;;4.40;;
46334;SDS011;32051;48.882;9.210;2022-08-18T11:42:51;5.13;;;4.80;;
46334;SDS011;32051;48.882;9.210;2022-08-18T11:45:19;5.20;;;4.80;;
46334;SDS011;32051;48.882;9.210;2022-08-18T11:50:30;5.10;;;4.70;;
46334;SDS011;32051;48.882;9.210;2022-08-18T11:53:10;5.85;;;4.63;;
46334;SDS011;32051;48.882;9.210;2022-08-18T11:55:36;6.13;;;5.10;;
46334;SDS011;32051;48.882;9.210;2022-08-18T11:58:02;8.82;;;4.70;;
46334;SDS011;32051;48.882;9.210;2022-08-18T12:05:51;4.35;;;4.03;;
46334;SDS011;32051;48.882;9.210;2022-08-18T12:08:19;8.05;;;4.07;;
46334;SDS011;32051;48.882;9.210;2022-08-18T12:10:46;11.57;;;3.40;;
46334;SDS011;32051;48.882;9.210;2022-08-18T12:13:20;9.02;;;4.82;;
46334;SDS011;32051;48.882;9.210;2022-08-18T12:15:46;7.05;;;3.80;;
46334;SDS011;32051;48.882;9.210;2022-08-18T12:18:15;5.43;;;4.10;;
46334;SDS011;32051;48.882;9.210;2022-08-18T12:20:43;5.43;;;3.57;;
46334;SDS011;32051;48.882;9.210;2022-08-18T12:23:09;8.77;;;4.45;;
46334;SDS011;32051;48.882;9.210;2022-08-18T12:25:35;5.63;;;4.50;;
46334;SDS011;32051;48.882;9.210;2022-08-18T12:28:01;7.72;;;4.22;;
46334;SDS011;32051;48.882;9.210;2022-08-18T12:30:28;4.50;;;4.13;;
46334;SDS011;32051;48.882;9.210;2022-08-18T12:32:54;6.05;;;4.53;;
46334;SDS011;32051;48.882;9.210;2022-08-18T12:35:20;7.57;;;4.30;;
46334;SDS011;32051;48.882;9.210;2022-08-18T12:37:46;6.35;;;4.10;;
46334;SDS011;32051;48.882;9.210;2022-08-18T12:40:12;4.75;;;4.03;;
46334;SDS011;32051;48.882;9.210;2022-08-18T12:42:38;8.18;;;4.25;;
46334;SDS011;32051;48.882;9.210;2022-08-18T12:45:05;6.32;;;3.67;;
46334;SDS011;32051;48.882;9.210;2022-08-18T12:47:31;4.32;;;3.42;;
46334;SDS011;32051;48.882;9.210;2022-08-18T12:49:57;11.25;;;4.13;;
46334;SDS011;32051;48.882;9.210;2022-08-18T12:52:23;4.43;;;3.72;;
46334;SDS011;32051;48.882;9.210;2022-08-18T12:54:49;4.70;;;4.30;;
46334;SDS011;32051;48.882;9.210;2022-08-18T12:57:20;10.07;;;3.70;;
46334;SDS011;32051;48.882;9.210;2022-08-18T12:59:46;6.88;;;4.10;;
46334;SDS011;32051;48.882;9.210;2022-08-18T13:02:12;6.45;;;4.38;;
46334;SDS011;32051;48.882;9.210;2022-08-18T13:04:38;3.72;;;3.38;;
46334;SDS011;32051;48.882;9.210;2022-08-18T13:07:04;4.28;;;2.97;;
46334;SDS011;32051;48.882;9.210;2022-08-18T13:09:32;3.30;;;3.00;;
46334;SDS011;32051;48.882;9.210;2022-08-18T13:11:59;2.72;;;2.55;;
46334;SDS011;32051;48.882;9.210;2022-08-18T13:14:24;3.25;;;2.95;;
46334;SDS011;32051;48.882;9.210;2022-08-18T13:16:50;3.30;;;2.47;;
46334;SDS011;32051;48.882;9.210;2022-08-18T13:19:17;2.38;;;2.22;;
46334;SDS011;32051;48.882;9.210;2022-08-18T13:21:43;6.50;;;2.58;;
46334;SDS011;32051;48.882;9.210;2022-08-18T13:24:09;2.75;;;2.55;;
46334;SDS011;32051;48.882;9.210;2022-08-18T13:26:37;4.25;;;2.58;;
46334;SDS011;32051;48.882;9.210;2022-08-18T13:29:06;4.20;;;3.05;;
46334;SDS011;32051;48.882;9.210;2022-08-18T13:31:32;4.13;;;2.80;;
46334;SDS011;32051;48.882;9.210;2022-08-18T13:33:58;2.85;;;2.65;;
46334;SDS011;32051;48.882;9.210;2022-08-18T13:36:25;3.63;;;3.33;;
46334;SDS011;32051;48.882;9.210;2022-08-18T13:39:21;5.57;;;2.90;;
46334;SDS011;32051;48.882;9.210;2022-08-18T13:41:49;4.82;;;2.50;;
46334;SDS011;32051;48.882;9.210;2022-08-18T13:44:16;5.25;;;2.88;;
46334;SDS011;32051;48.882;9.210;2022-08-18T13:46:43;2.22;;;2.13;;
46334;SDS011;32051;48.882;9.210;2022-08-18T13:49:20;2.70;;;2.50;;
46334;SDS011;32051;48.882;9.210;2022-08-18T13:51:48;3.45;;;2.35;;
46334;SDS011;32051;48.882;9.210;2022-08-18T13:54:22;2.70;;;2.50;;
46334;SDS011;32051;48.882;9.210;2022-08-18T13:56:50;4.03;;;2.65;;
46334;SDS011;32051;48.882;9.210;2022-08-18T13:59:17;2.30;;;2.10;;
46334;SDS011;32051;48.882;9.210;2022-08-18T14:01:45;3.40;;;3.10;;
46334;SDS011;32051;48.882;9.210;2022-08-18T14:04:12;5.18;;;2.80;;
46334;SDS011;32051;48.882;9.210;2022-08-18T14:06:39;6.07;;;2.97;;
46334;SDS011;32051;48.882;9.210;2022-08-18T14:09:06;3.20;;;2.40;;
46334;SDS011;32051;48.882;9.210;2022-08-18T14:11:36;5.40;;;2.63;;
46334;SDS011;32051;48.882;9.210;2022-08-18T14:14:02;5.88;;;2.50;;
46334;SDS011;32051;48.882;9.210;2022-08-18T14:16:29;2.72;;;2.53;;
46334;SDS011;32051;48.882;9.210;2022-08-18T14:18:55;3.55;;;3.35;;
46334;SDS011;32051;48.882;9.210;2022-08-18T14:21:45;3.22;;;3.03;;
46334;SDS011;32051;48.882;9.210;2022-08-18T14:24:32;9.88;;;2.95;;
46334;SDS011;32051;48.882;9.210;2022-08-18T14:27:17;2.30;;;2.20;;
46334;SDS011;32051;48.882;9.210;2022-08-18T14:29:48;3.03;;;2.42;;
46334;SDS011;32051;48.882;9.210;2022-08-18T14:32:16;2.70;;;2.50;;
46334;SDS011;32051;48.882;9.210;2022-08-18T14:34:46;2.70;;;2.47;;
46334;SDS011;32051;48.882;9.210;2022-08-18T14:37:12;2.63;;;2.40;;
46334;SDS011;32051;48.882;9.210;2022-08-18T14:39:38;3.00;;;2.38;;
46334;SDS011;32051;48.882;9.210;2022-08-18T14:42:04;3.70;;;2.58;;
46334;SDS011;32051;48.882;9.210;2022-08-18T14:44:29;3.63;;;2.55;;
46334;SDS011;32051;48.882;9.210;2022-08-18T14:46:55;4.78;;;2.63;;
46334;SDS011;32051;48.882;9.210;2022-08-18T14:49:26;4.35;;;2.85;;
46334;SDS011;32051;48.882;9.210;2022-08-18T14:51:56;4.25;;;3.03;;
46334;SDS011;32051;48.882;9.210;2022-08-18T14:54:22;3.65;;;3.35;;
46334;SDS011;32051;48.882;9.210;2022-08-18T14:56:48;3.10;;;2.90;;
46334;SDS011;32051;48.882;9.210;2022-08-18T14:59:14;3.45;;;2.67;;
46334;SDS011;32051;48.882;9.210;2022-08-18T15:01:40;11.95;;;2.90;;
46334;SDS011;32051;48.882;9.210;2022-08-18T15:04:07;5.22;;;3.10;;
46334;SDS011;32051;48.882;9.210;2022-08-18T15:06:35;3.45;;;2.80;;
46334;SDS011;32051;48.882;9.210;2022-08-18T15:09:01;3.67;;;3.10;;
46334;SDS011;32051;48.882;9.210;2022-08-18T15:11:27;3.38;;;3.13;;
46334;SDS011;32051;48.882;9.210;2022-08-18T15:13:53;8.55;;;3.25;;
46334;SDS011;32051;48.882;9.210;2022-08-18T15:16:19;4.53;;;3.10;;
46334;SDS011;32051;48.882;9.210;2022-08-18T15:18:45;6.53;;;3.17;;
46334;SDS011;32051;48.882;9.210;2022-08-18T15:21:12;3.17;;;2.97;;
46334;SDS011;32051;48.882;9.210;2022-08-18T15:23:56;3.83;;;3.28;;
46334;SDS011;32051;48.882;9.210;2022-08-18T15:26:41;3.05;;;2.85;;
46334;SDS011;32051;48.882;9.210;2022-08-18T15:29:08;6.13;;;3.05;;
46334;SDS011;32051;48.882;9.210;2022-08-18T15:31:35;3.35;;;3.10;;
46334;SDS011;32051;48.882;9.210;2022-08-18T15:34:02;5.60;;;3.30;;
46334;SDS011;32051;48.882;9.210;2022-08-18T15:36:28;4.72;;;3.13;;
46334;SDS011;32051;48.882;9.210;2022-08-18T15:38:59;3.88;;;2.63;;
46334;SDS011;32051;48.882;9.210;2022-08-18T15:41:29;4.43;;;2.90;;
46334;SDS011;32051;48.882;9.210;2022-08-18T15:44:06;2.90;;;2.70;;
46334;SDS011;32051;48.882;9.210;2022-08-18T15:46:35;3.88;;;3.03;;
46334;SDS011;32051;48.882;9.210;2022-08-18T15:49:03;4.07;;;3.25;;
46334;SDS011;32051;48.882;9.210;2022-08-18T15:51:31;8.10;;;3.63;;
46334;SDS011;32051;48.882;9.210;2022-08-18T15:53:58;5.50;;;2.90;;
46334;SDS011;32051;48.882;9.210;2022-08-18T15:56:24;3.97;;;3.78;;
46334;SDS011;32051;48.882;9.210;2022-08-18T15:58:50;6.30;;;3.03;;
46334;SDS011;32051;48.882;9.210;2022-08-18T16:01:17;3.08;;;2.85;;
46334;SDS011;32051;48.882;9.210;2022-08-18T16:03:45;4.55;;;3.03;;
46334;SDS011;32051;48.882;9.210;2022-08-18T16:06:13;3.38;;;2.58;;
46334;SDS011;32051;48.882;9.210;2022-08-18T16:08:40;5.90;;;2.90;;
46334;SDS011;32051;48.882;9.210;2022-08-18T16:11:10;3.30;;;2.75;;
46334;SDS011;32051;48.882;9.210;2022-08-18T16:13:38;5.97;;;3.15;;
46334;SDS011;32051;48.882;9.210;2022-08-18T16:16:08;6.63;;;3.45;;
46334;SDS011;32051;48.882;9.210;2022-08-18T16:18:35;3.40;;;3.20;;
46334;SDS011;32051;48.882;9.210;2022-08-18T16:21:06;5.57;;;3.28;;
46334;SDS011;32051;48.882;9.210;2022-08-18T16:23:38;3.05;;;2.83;;
46334;SDS011;32051;48.882;9.210;2022-08-18T16:26:06;3.25;;;3.05;;
46334;SDS011;32051;48.882;9.210;2022-08-18T16:28:33;3.22;;;2.38;;
46334;SDS011;32051;48.882;9.210;2022-08-18T16:30:59;3.60;;;2.65;;
46334;SDS011;32051;48.882;9.210;2022-08-18T16:33:26;6.05;;;2.90;;
46334;SDS011;32051;48.882;9.210;2022-08-18T16:35:52;2.83;;;2.70;;
46334;SDS011;32051;48.882;9.210;2022-08-18T16:38:18;8.40;;;3.35;;
46334;SDS011;32051;48.882;9.210;2022-08-18T16:40:44;3.42;;;3.13;;
46334;SDS011;32051;48.882;9.210;2022-08-18T16:43:10;5.68;;;3.15;;
46334;SDS011;32051;48.882;9.210;2022-08-18T16:45:37;2.70;;;2.50;;
46334;SDS011;32051;48.882;9.210;2022-08-18T16:48:06;2.75;;;2.55;;
46334;SDS011;32051;48.882;9.210;2022-08-18T16:50:33;2.85;;;2.63;;
46334;SDS011;32051;48.882;9.210;2022-08-18T16:52:59;5.55;;;3.50;;
46334;SDS011;32051;48.882;9.210;2022-08-18T16:55:25;7.03;;;3.22;;
46334;SDS011;32051;48.882;9.210;2022-08-18T16:57:51;6.65;;;3.75;;
46334;SDS011;32051;48.882;9.210;2022-08-18T17:00:36;4.20;;;3.50;;
46334;SDS011;32051;48.882;9.210;2022-08-18T17:03:21;8.18;;;3.85;;
46334;SDS011;32051;48.882;9.210;2022-08-18T17:06:10;7.50;;;4.13;;
46334;SDS011;32051;48.882;9.210;2022-08-18T17:08:38;4.80;;;4.40;;
46334;SDS011;32051;48.882;9.210;2022-08-18T17:11:06;4.10;;;3.90;;
46334;SDS011;32051;48.882;9.210;2022-08-18T17:13:35;4.28;;;4.00;;
46334;SDS011;32051;48.882;9.210;2022-08-18T17:16:01;6.28;;;4.43;;
46334;SDS011;32051;48.882;9.210;2022-08-18T17:18:28;12.43;;;4.65;;
46334;SDS011;32051;48.882;9.210;2022-08-18T17:20:54;4.45;;;4.15;;